Time;durP1;ratioP1;P1;durP2;ratioP2;P2;SDS_P1;SDS_P2;PMS_P1;PMS_P2;Temp;Humidity;BMP_temperature;BMP_pressure;BME280_temperature;BME280_humidity;BME280_pressure;Samples;Min_cycle;Max_cycle;Signal;HPM_P1;HPM_P2
2021/07/20 00:02:27;;;;;;;3.97;1.10;;;;;;;15.90;42.92;102054.03;5049988;28;20040;-68
2021/07/20 00:04:52;;;;;;;3.03;1.00;;;;;;;15.84;43.33;102052.56;5048860;28;20044;-68
2021/07/20 00:07:17;;;;;;;3.15;1.30;;;;;;;15.94;43.02;102055.63;5046375;28;20041;-69
2021/07/20 00:09:43;;;;;;;4.90;1.10;;;;;;;15.79;43.26;102052.75;5051740;28;20044;-68
2021/07/20 00:12:09;;;;;;;5.45;1.17;;;;;;;15.77;43.59;102053.72;5052034;28;20052;-67
2021/07/20 00:14:34;;;;;;;2.30;1.48;;;;;;;15.80;43.42;102043.91;5050521;28;20036;-67
2021/07/20 00:17:00;;;;;;;2.95;1.45;;;;;;;15.82;43.31;102054.41;5048876;28;20041;-68
2021/07/20 00:19:25;;;;;;;5.95;1.45;;;;;;;15.81;43.50;102055.31;5031221;28;20029;-68
2021/07/20 00:21:52;;;;;;;5.47;2.03;;;;;;;15.86;43.18;102053.31;5047044;28;20171;-67
2021/07/20 00:24:17;;;;;;;4.80;0.88;;;;;;;15.98;42.93;102059.84;5047226;28;20485;-67
2021/07/20 00:26:44;;;;;;;2.70;1.45;;;;;;;15.92;43.38;102055.69;5050351;28;20067;-67
2021/07/20 00:29:09;;;;;;;5.75;1.73;;;;;;;15.79;43.65;102051.88;5047499;28;20071;-66
2021/07/20 00:31:35;;;;;;;2.97;1.17;;;;;;;15.59;43.60;102053.63;5050674;28;20442;-67
2021/07/20 00:34:00;;;;;;;3.60;1.10;;;;;;;15.73;43.36;102047.75;5049919;28;20033;-66
2021/07/20 00:36:26;;;;;;;2.03;1.20;;;;;;;15.77;43.57;102048.44;5048977;28;20033;-65
2021/07/20 00:38:51;;;;;;;2.58;1.20;;;;;;;15.66;43.85;102053.31;5049351;28;20447;-65
2021/07/20 00:41:17;;;;;;;2.75;0.93;;;;;;;15.65;43.81;102049.84;5048047;28;20094;-66
2021/07/20 00:43:42;;;;;;;2.38;1.02;;;;;;;15.64;44.03;102047.25;5047827;28;20116;-66
2021/07/20 00:46:08;;;;;;;4.70;0.90;;;;;;;15.77;43.54;102051.06;5049754;28;20116;-67
2021/07/20 00:48:33;;;;;;;2.30;1.17;;;;;;;15.86;43.42;102053.31;5050830;28;20355;-68
2021/07/20 00:51:04;;;;;;;2.40;1.15;;;;;;;15.90;43.19;102044.34;5046390;28;20548;-68
2021/07/20 00:53:30;;;;;;;3.50;1.42;;;;;;;15.90;43.43;102046.13;5046582;28;20142;-68
2021/07/20 00:56:04;;;;;;;3.90;1.25;;;;;;;15.87;43.57;102044.50;5047258;28;20033;-68
2021/07/20 00:58:34;;;;;;;5.75;1.38;;;;;;;15.83;43.27;102042.06;5046667;28;20037;-68
2021/07/20 01:01:00;;;;;;;2.70;1.30;;;;;;;15.83;43.09;102039.44;5048055;28;20043;-68
2021/07/20 01:03:26;;;;;;;2.83;1.10;;;;;;;15.79;43.70;102041.34;5028868;28;20086;-68
2021/07/20 01:05:51;;;;;;;2.08;0.98;;;;;;;15.74;43.46;102038.03;5048715;28;20391;-68
2021/07/20 01:08:19;;;;;;;2.75;1.02;;;;;;;15.80;43.18;102040.44;5049793;28;20039;-66
2021/07/20 01:10:48;;;;;;;4.90;1.30;;;;;;;15.76;43.42;102039.69;5032212;28;20139;-66
2021/07/20 01:13:16;;;;;;;4.60;1.10;;;;;;;15.75;43.59;102029.19;5052397;28;20127;-66
2021/07/20 01:15:47;;;;;;;4.22;1.00;;;;;;;15.73;43.09;102025.81;5048512;28;20033;-65
2021/07/20 01:18:13;;;;;;;1.23;0.73;;;;;;;15.72;43.34;102031.97;5030415;28;20650;-65
2021/07/20 01:20:38;;;;;;;5.00;1.42;;;;;;;15.78;43.37;102024.66;5048731;28;20409;-66
2021/07/20 01:23:11;;;;;;;4.13;1.23;;;;;;;15.69;43.66;102024.22;5047704;28;20029;-65
2021/07/20 01:25:40;;;;;;;4.38;0.95;;;;;;;15.78;43.36;102029.94;5048884;28;20048;-66
2021/07/20 01:28:13;;;;;;;3.40;0.90;;;;;;;15.69;43.42;102024.22;5049952;28;20079;-68
2021/07/20 01:30:42;;;;;;;3.72;1.35;;;;;;;15.69;43.95;102026.84;5045991;28;20024;-67
2021/07/20 01:33:10;;;;;;;4.83;1.30;;;;;;;15.77;43.42;102037.91;5065403;28;20032;-67
2021/07/20 01:35:37;;;;;;;3.38;1.20;;;;;;;15.81;43.08;102031.56;5044099;28;20024;-68
2021/07/20 01:38:08;;;;;;;3.25;1.52;;;;;;;15.79;42.88;102041.34;5023143;28;20074;-67
2021/07/20 01:40:37;;;;;;;3.80;1.25;;;;;;;15.73;42.80;102036.34;5050111;28;20032;-68
2021/07/20 01:43:05;;;;;;;4.63;1.15;;;;;;;15.64;42.67;102044.63;5045613;28;20028;-68
2021/07/20 01:45:33;;;;;;;4.30;1.33;;;;;;;15.70;42.51;102041.72;5046077;28;20400;-68
2021/07/20 01:48:00;;;;;;;2.97;1.20;;;;;;;15.70;42.53;102042.59;5048301;28;20035;-67
2021/07/20 01:50:28;;;;;;;3.13;1.38;;;;;;;15.67;42.80;102041.88;5046493;28;20036;-68
2021/07/20 01:52:55;;;;;;;3.90;1.00;;;;;;;15.62;42.57;102043.84;5048162;28;20033;-67
2021/07/20 01:55:24;;;;;;;3.25;1.63;;;;;;;15.61;42.72;102040.34;5046075;28;20086;-68
2021/07/20 01:57:52;;;;;;;6.07;1.48;;;;;;;15.42;42.72;102044.72;5036412;28;20036;-68
2021/07/20 02:00:41;;;;;;;5.90;1.50;;;;;;;15.52;42.62;102044.22;5032739;28;20393;-67
2021/07/20 02:08:46;;;;;;;3.88;1.67;;;;;;;15.56;41.52;102030.00;5048928;28;20410;-67
2021/07/20 02:11:26;;;;;;;4.38;1.38;;;;;;;15.51;41.28;102032.00;5049073;28;20039;-68
2021/07/20 02:14:02;;;;;;;2.83;1.27;;;;;;;15.43;41.05;102022.69;5048987;28;20033;-66
2021/07/20 02:16:48;;;;;;;4.25;1.00;;;;;;;15.59;39.89;102024.63;5047349;28;20051;-66
2021/07/20 02:19:19;;;;;;;3.25;1.55;;;;;;;15.42;40.10;102027.13;5045776;28;20038;-66
2021/07/20 02:22:02;;;;;;;2.78;1.00;;;;;;;15.39;39.25;102027.22;5047436;28;20051;-65
2021/07/20 02:24:32;;;;;;;3.25;1.17;;;;;;;15.49;39.50;102025.94;5048338;28;20033;-66
2021/07/20 02:27:22;;;;;;;3.08;1.63;;;;;;;15.48;39.63;102032.13;5036939;28;20128;-65
2021/07/20 02:30:03;;;;;;;2.10;1.30;;;;;;;15.42;39.77;102032.38;5045203;28;20151;-65
2021/07/20 02:32:30;;;;;;;3.13;1.20;;;;;;;15.51;39.71;102032.00;5046466;28;20490;-66
2021/07/20 02:34:59;;;;;;;5.82;1.73;;;;;;;15.43;39.21;102043.78;5047422;28;20039;-66
2021/07/20 02:37:31;;;;;;;2.97;1.00;;;;;;;15.63;39.50;102035.88;5048480;28;20039;-66
2021/07/20 02:39:58;;;;;;;2.00;0.93;;;;;;;15.48;39.66;102037.41;5048498;28;20032;-65
2021/07/20 02:42:24;;;;;;;6.95;1.92;;;;;;;15.36;40.29;102037.91;5043299;28;20394;-65
2021/07/20 02:44:53;;;;;;;2.72;1.50;;;;;;;15.38;40.87;102038.69;5046410;28;20390;-65
2021/07/20 02:47:20;;;;;;;3.10;1.33;;;;;;;15.34;40.69;102030.06;5045533;28;20037;-65
2021/07/20 02:49:49;;;;;;;5.25;2.08;;;;;;;15.38;40.89;102038.69;5047143;28;20064;-65
2021/07/20 02:52:15;;;;;;;2.40;1.42;;;;;;;15.53;40.52;102035.41;5032639;28;20040;-65
2021/07/20 02:54:41;;;;;;;2.80;2.08;;;;;;;15.49;40.95;102031.19;5047228;28;20029;-66
2021/07/20 02:57:11;;;;;;;3.08;1.70;;;;;;;15.41;41.48;102033.28;5046262;28;20032;-65
2021/07/20 02:59:39;;;;;;;4.70;1.80;;;;;;;15.57;40.90;102029.09;5046978;28;20259;-65
2021/07/20 03:02:15;;;;;;;4.28;1.95;;;;;;;15.61;41.43;102032.44;5046367;28;20490;-65
2021/07/20 03:04:42;;;;;;;2.88;1.40;;;;;;;15.48;41.60;102031.25;5048915;28;20115;-65
2021/07/20 03:07:15;;;;;;;6.45;1.95;;;;;;;15.64;41.64;102034.09;5044931;28;20119;-65
2021/07/20 03:09:50;;;;;;;4.68;1.65;;;;;;;15.50;41.89;102040.81;5035180;28;20032;-65
2021/07/20 03:12:20;;;;;;;1.90;1.27;;;;;;;15.40;42.68;102039.50;5044307;28;20105;-66
2021/07/20 03:14:51;;;;;;;4.07;1.73;;;;;;;15.38;42.92;102028.16;5046666;28;20042;-65
2021/07/20 03:17:26;;;;;;;3.88;1.50;;;;;;;15.29;43.31;102044.34;5031455;28;20033;-65
2021/07/20 03:19:56;;;;;;;8.65;1.92;;;;;;;15.35;43.60;102037.06;5044496;28;20028;-65
2021/07/20 03:22:28;;;;;;;5.65;2.78;;;;;;;15.27;42.96;102033.03;5044364;28;20036;-65
2021/07/20 03:24:59;;;;;;;7.68;1.83;;;;;;;15.26;42.81;102034.81;5045483;28;20029;-65
2021/07/20 03:27:31;;;;;;;4.68;2.13;;;;;;;15.35;42.65;102031.78;5044204;28;20402;-65
2021/07/20 03:30:01;;;;;;;6.13;2.58;;;;;;;15.34;42.32;102039.75;5047855;28;20505;-66
2021/07/20 03:32:30;;;;;;;2.80;1.80;;;;;;;15.29;42.56;102047.00;5046187;28;20068;-66
2021/07/20 03:34:57;;;;;;;5.15;2.35;;;;;;;15.27;42.66;102038.28;5046299;28;20501;-65
2021/07/20 03:37:26;;;;;;;7.68;1.75;;;;;;;15.28;42.22;102040.00;5043950;28;20043;-65
2021/07/20 03:39:55;;;;;;;4.38;1.75;;;;;;;15.34;42.56;102042.38;5047484;28;20088;-65
2021/07/20 03:42:24;;;;;;;7.50;2.10;;;;;;;15.40;42.56;102028.09;5045424;28;20029;-64
2021/07/20 03:44:50;;;;;;;5.25;2.35;;;;;;;15.40;42.35;102034.22;5047510;28;20749;-63
2021/07/20 03:47:16;;;;;;;5.72;1.83;;;;;;;15.46;42.34;102035.72;5047675;28;20617;-66
2021/07/20 03:49:44;;;;;;;3.20;2.00;;;;;;;15.53;42.52;102030.16;5045462;28;20061;-64
2021/07/20 03:52:13;;;;;;;6.05;2.00;;;;;;;15.61;42.30;102036.88;5045086;28;20045;-64
2021/07/20 03:54:39;;;;;;;5.05;2.83;;;;;;;15.57;42.15;102036.13;5045188;28;20068;-65
2021/07/20 03:57:06;;;;;;;6.88;2.03;;;;;;;15.53;42.84;102034.56;5044035;28;20466;-65
2021/07/20 03:59:40;;;;;;;4.40;1.65;;;;;;;15.48;42.88;102033.88;5043249;28;20110;-65
2021/07/20 04:02:29;;;;;;;3.55;2.03;;;;;;;15.54;42.78;102042.38;5038994;28;20082;-65
2021/07/20 04:05:03;;;;;;;4.55;2.15;;;;;;;15.57;42.83;102037.00;5047162;28;20025;-65
2021/07/20 04:07:33;;;;;;;5.45;2.17;;;;;;;15.66;43.18;102040.16;5026224;28;20029;-65
2021/07/20 04:10:05;;;;;;;3.22;2.10;;;;;;;15.64;43.34;102044.63;5017201;28;20500;-66
2021/07/20 04:12:57;;;;;;;2.88;1.42;;;;;;;15.62;43.08;102051.75;5032938;28;20128;-66
2021/07/20 04:15:52;;;;;;;5.30;2.25;;;;;;;15.52;43.08;102040.75;5041239;28;20494;-66
2021/07/20 04:18:23;;;;;;;9.70;2.03;;;;;;;15.58;43.14;102038.72;5048614;28;20036;-65
2021/07/20 04:20:49;;;;;;;2.42;2.00;;;;;;;15.61;42.84;102048.25;5049433;28;20412;-67
2021/07/20 04:23:22;;;;;;;4.45;1.95;;;;;;;15.47;42.96;102046.22;5045246;28;20036;-66
2021/07/20 04:25:58;;;;;;;4.57;1.40;;;;;;;15.53;43.26;102053.88;5050701;28;20029;-68
2021/07/20 04:28:25;;;;;;;3.97;1.40;;;;;;;15.57;42.69;102051.94;5049840;28;20464;-67
2021/07/20 04:30:53;;;;;;;7.10;2.17;;;;;;;15.61;42.77;102044.78;5045422;28;20036;-67
2021/07/20 04:33:26;;;;;;;5.68;2.28;;;;;;;15.73;42.27;102047.75;5048014;28;20040;-65
2021/07/20 04:36:20;;;;;;;2.70;1.40;;;;;;;15.77;42.60;102043.19;5021866;28;20053;-65
2021/07/20 04:38:49;;;;;;;8.73;2.03;;;;;;;15.80;42.66;102053.59;5044985;28;20044;-65
2021/07/20 04:41:16;;;;;;;4.63;2.00;;;;;;;15.83;42.47;102055.25;5047308;28;20033;-66
2021/07/20 04:43:45;;;;;;;6.35;2.28;;;;;;;15.87;42.17;102060.31;5046912;28;20059;-66
2021/07/20 04:46:12;;;;;;;4.35;2.58;;;;;;;15.73;42.24;102058.28;5045762;28;20152;-66
2021/07/20 04:48:39;;;;;;;2.97;1.65;;;;;;;15.84;42.44;102060.47;5045083;28;20025;-66
2021/07/20 04:51:13;;;;;;;5.50;2.70;;;;;;;15.95;41.56;102052.94;5045369;28;20071;-66
2021/07/20 04:53:40;;;;;;;4.82;2.03;;;;;;;15.97;41.97;102055.47;5047970;28;20032;-65
2021/07/20 04:56:07;;;;;;;7.65;2.42;;;;;;;15.97;41.01;102048.47;5048569;28;20060;-65
2021/07/20 04:58:34;;;;;;;6.05;2.55;;;;;;;15.99;41.53;102048.38;5029720;28;20028;-65
2021/07/20 05:01:02;;;;;;;3.13;2.03;;;;;;;15.98;41.27;102055.44;5029757;28;20037;-66
2021/07/20 05:03:31;;;;;;;5.50;2.22;;;;;;;16.08;41.71;102060.31;5046126;28;20029;-66
2021/07/20 05:05:58;;;;;;;4.03;2.22;;;;;;;16.16;42.01;102060.84;5046187;28;20522;-66
2021/07/20 05:08:32;;;;;;;6.95;2.97;;;;;;;16.09;42.05;102070.81;5031059;28;20032;-67
2021/07/20 05:11:00;;;;;;;4.40;2.72;;;;;;;15.95;42.56;102068.75;5030474;28;20155;-66
2021/07/20 05:13:32;;;;;;;6.82;2.30;;;;;;;15.97;42.82;102072.19;5048646;28;20383;-67
2021/07/20 05:16:02;;;;;;;9.73;2.78;;;;;;;15.68;43.13;102067.28;5044665;28;20425;-66
2021/07/20 05:18:46;;;;;;;5.32;2.05;;;;;;;15.66;43.29;102077.03;5047701;28;20029;-68
2021/07/20 05:21:33;;;;;;;5.53;2.40;;;;;;;15.80;43.37;102070.28;5045752;28;20433;-64
2021/07/20 05:24:02;;;;;;;6.20;2.63;;;;;;;15.82;43.46;102075.50;5047585;28;20051;-65
2021/07/20 05:26:45;;;;;;;6.80;2.85;;;;;;;15.88;42.95;102072.56;5043243;28;20028;-66
2021/07/20 05:29:19;;;;;;;8.85;3.90;;;;;;;15.96;43.05;102066.97;5031964;28;20458;-64
2021/07/20 05:31:57;;;;;;;5.25;3.13;;;;;;;16.03;42.52;102068.44;5045334;28;20039;-64
2021/07/20 05:34:23;;;;;;;9.38;2.60;;;;;;;16.04;42.36;102069.28;5043823;28;20028;-64
2021/07/20 05:36:50;;;;;;;4.15;2.67;;;;;;;15.97;43.07;102068.66;5043322;28;20059;-64
2021/07/20 05:39:19;;;;;;;7.18;2.60;;;;;;;16.06;42.10;102067.44;5045770;28;20024;-64
2021/07/20 05:41:52;;;;;;;5.65;2.63;;;;;;;16.14;41.98;102067.97;5045940;28;20028;-64
2021/07/20 05:44:21;;;;;;;6.95;2.92;;;;;;;16.19;41.62;102071.25;5058889;28;20057;-66
2021/07/20 05:46:47;;;;;;;3.95;2.33;;;;;;;16.28;41.79;102064.69;5046791;28;20038;-68
2021/07/20 05:49:15;;;;;;;6.38;2.50;;;;;;;16.39;40.83;102075.63;5046571;28;20032;-67
2021/07/20 05:51:41;;;;;;;6.68;2.92;;;;;;;16.36;40.89;102076.63;5046781;28;20032;-67
2021/07/20 05:54:14;;;;;;;4.43;2.38;;;;;;;16.51;41.15;102069.78;5046630;28;20029;-66
2021/07/20 05:56:59;;;;;;;4.57;2.70;;;;;;;16.63;40.67;102073.63;5046110;28;20067;-66
2021/07/20 05:59:37;;;;;;;6.35;2.55;;;;;;;16.74;40.29;102071.34;5048287;28;20039;-67
2021/07/20 06:02:11;;;;;;;8.32;3.28;;;;;;;16.85;39.58;102075.31;5050521;28;20361;-68
2021/07/20 06:04:38;;;;;;;7.07;2.70;;;;;;;17.06;39.92;102074.25;5047004;28;20024;-67
2021/07/20 06:07:09;;;;;;;5.13;3.08;;;;;;;17.18;39.50;102068.38;5045079;28;20039;-67
2021/07/20 06:09:35;;;;;;;9.80;3.28;;;;;;;17.43;39.55;102072.44;5047517;28;20081;-66
2021/07/20 06:12:04;;;;;;;5.20;3.10;;;;;;;17.31;38.94;102068.59;5046252;28;20045;-65
2021/07/20 06:14:31;;;;;;;6.80;3.28;;;;;;;17.18;39.11;102065.75;5046225;28;20418;-66
2021/07/20 06:16:57;;;;;;;9.30;3.97;;;;;;;17.37;39.62;102065.66;5044673;28;20547;-66
2021/07/20 06:19:22;;;;;;;6.93;2.60;;;;;;;17.61;39.43;102065.41;5046256;28;20050;-65
2021/07/20 06:21:49;;;;;;;7.13;3.30;;;;;;;17.92;38.92;102069.97;5047724;28;20040;-66
2021/07/20 06:24:23;;;;;;;6.93;3.55;;;;;;;17.96;37.41;102070.63;5043585;28;20493;-64
2021/07/20 06:26:49;;;;;;;5.82;3.05;;;;;;;18.00;38.40;102067.75;5045288;28;20430;-66
2021/07/20 06:29:16;;;;;;;7.78;3.58;;;;;;;18.25;36.33;102062.06;5032148;28;20539;-65
2021/07/20 06:31:44;;;;;;;5.72;2.97;;;;;;;19.13;34.89;102070.44;5046376;28;20045;-66
2021/07/20 06:34:13;;;;;;;10.25;3.45;;;;;;;20.20;33.40;102072.94;5045792;28;20025;-65
2021/07/20 06:36:42;;;;;;;6.07;3.08;;;;;;;20.08;34.51;102074.53;5044208;28;20036;-66
2021/07/20 06:39:08;;;;;;;7.05;3.40;;;;;;;19.83;35.20;102070.75;5043556;28;20103;-66
2021/07/20 06:41:36;;;;;;;5.15;2.70;;;;;;;19.97;34.41;102064.63;5046930;28;20058;-66
2021/07/20 06:44:04;;;;;;;9.05;3.03;;;;;;;20.15;34.46;102065.28;5044172;28;20059;-66
2021/07/20 06:46:31;;;;;;;5.40;3.25;;;;;;;22.12;31.00;102055.84;5038970;28;20037;-67
2021/07/20 06:48:57;;;;;;;5.10;2.58;;;;;;;23.03;28.88;102064.41;5044345;28;20048;-66
2021/07/20 06:51:24;;;;;;;6.85;2.95;;;;;;;24.01;27.86;102068.47;5045329;28;20040;-65
2021/07/20 06:53:53;;;;;;;3.75;2.25;;;;;;;25.77;25.05;102070.94;5044883;28;20527;-66
2021/07/20 06:56:32;;;;;;;5.93;2.67;;;;;;;25.93;25.80;102064.25;5043915;28;20275;-66
2021/07/20 06:59:00;;;;;;;5.13;2.95;;;;;;;25.72;24.39;102067.84;5044392;28;20075;-67
2021/07/20 07:01:29;;;;;;;6.97;3.30;;;;;;;26.52;24.18;102066.19;5043260;28;20037;-66
2021/07/20 07:04:08;;;;;;;6.43;3.60;;;;;;;26.77;23.41;102063.97;5042941;28;20567;-67
2021/07/20 07:06:39;;;;;;;6.43;4.35;;;;;;;26.94;22.89;102063.28;5041460;28;20025;-66
2021/07/20 07:09:06;;;;;;;;;;;;;;;25.86;23.50;102062.09;5042593;28;20037;-67
2021/07/20 07:11:32;;;;;;;5.45;2.78;;;;;;;24.99;25.19;102059.69;5044833;28;19917;-67
2021/07/20 07:13:59;;;;;;;6.20;3.70;;;;;;;27.02;22.45;102057.19;5046476;28;20037;-67
2021/07/20 07:16:25;;;;;;;5.75;3.92;;;;;;;29.09;20.36;102061.41;5044615;28;20060;-66
2021/07/20 07:18:51;;;;;;;5.85;3.97;;;;;;;28.26;20.78;102058.91;5040400;28;20068;-67
2021/07/20 07:21:20;;;;;;;6.95;3.75;;;;;;;28.27;20.45;102060.56;5042781;28;20037;-67
2021/07/20 07:23:48;;;;;;;5.63;3.13;;;;;;;27.92;21.34;102067.53;5040146;28;20465;-66
2021/07/20 07:26:14;;;;;;;5.72;3.30;;;;;;;28.52;21.22;102064.41;5039594;28;20040;-69
2021/07/20 07:28:42;;;;;;;4.07;3.58;;;;;;;29.56;19.45;102069.16;5039153;28;20037;-68
2021/07/20 07:31:11;;;;;;;6.88;3.42;;;;;;;30.13;18.58;102070.50;5043144;28;20051;-66
2021/07/20 07:33:36;;;;;;;5.88;3.63;;;;;;;28.70;20.37;102077.03;5040071;28;20230;-67
2021/07/20 07:36:02;;;;;;;6.25;3.30;;;;;;;26.77;21.93;102077.41;5040293;28;20569;-68
2021/07/20 07:38:29;;;;;;;8.07;3.70;;;;;;;24.44;25.15;102080.25;5039981;28;20435;-69
2021/07/20 07:40:56;;;;;;;6.15;4.65;;;;;;;22.96;27.90;102083.56;5043649;28;20041;-68
2021/07/20 07:43:26;;;;;;;5.22;4.03;;;;;;;21.70;29.17;102073.81;5041132;28;20448;-67
2021/07/20 07:45:54;;;;;;;4.47;3.58;;;;;;;22.42;28.73;102075.91;5048248;28;20033;-66
2021/07/20 07:48:21;;;;;;;5.72;3.30;;;;;;;24.08;27.31;102068.84;5057919;28;20075;-67
2021/07/20 07:50:49;;;;;;;6.35;4.00;;;;;;;26.64;24.10;102075.81;5046606;28;20040;-67
2021/07/20 07:53:15;;;;;;;4.55;2.97;;;;;;;27.88;21.61;102076.88;5048756;28;20535;-67
2021/07/20 07:55:42;;;;;;;5.18;2.80;;;;;;;29.20;19.85;102081.06;5049469;28;20044;-68
2021/07/20 07:58:11;;;;;;;8.38;3.70;;;;;;;29.06;19.48;102088.66;5048413;28;20280;-68
2021/07/20 08:00:39;;;;;;;7.35;3.53;;;;;;;30.64;20.15;102090.22;5051064;28;20095;-67
2021/07/20 08:03:06;;;;;;;4.68;3.05;;;;;;;28.94;19.73;102090.72;5048687;28;20041;-68
2021/07/20 08:05:32;;;;;;;4.80;3.30;;;;;;;26.05;23.08;102090.84;5047421;28;20100;-67
2021/07/20 08:07:58;;;;;;;6.55;3.75;;;;;;;23.90;26.52;102092.50;5047317;28;20035;-66
2021/07/20 08:10:25;;;;;;;5.70;3.83;;;;;;;22.88;28.07;102098.41;5046693;28;20082;-67
2021/07/20 08:12:51;;;;;;;6.65;4.93;;;;;;;21.70;29.93;102100.44;5049155;28;20524;-66
2021/07/20 08:15:18;;;;;;;7.88;3.72;;;;;;;21.21;31.13;102093.06;5046757;28;20036;-66
2021/07/20 08:17:46;;;;;;;7.13;4.45;;;;;;;21.26;31.21;102098.91;5050253;28;20032;-66
2021/07/20 08:20:13;;;;;;;5.53;4.25;;;;;;;21.48;32.28;102095.72;5045697;28;20124;-67
2021/07/20 08:22:41;;;;;;;5.47;3.30;;;;;;;21.49;30.84;102099.22;5046975;28;20033;-66
2021/07/20 08:25:14;;;;;;;8.10;3.80;;;;;;;21.86;30.21;102104.69;5048919;28;20033;-67
2021/07/20 08:28:08;;;;;;;6.93;3.55;;;;;;;23.12;28.67;102095.72;5048255;28;20033;-66
2021/07/20 08:30:38;;;;;;;7.00;3.85;;;;;;;24.10;27.74;102096.28;5010385;28;20537;-68
2021/07/20 08:33:07;;;;;;;7.82;3.80;;;;;;;23.81;27.94;102096.69;5051121;28;20047;-67
2021/07/20 08:35:37;;;;;;;8.60;3.33;;;;;;;23.25;27.84;102096.50;5047882;28;20032;-67
2021/07/20 08:38:07;;;;;;;7.45;3.53;;;;;;;23.34;28.68;102103.00;5045929;28;20040;-67
2021/07/20 08:40:53;;;;;;;6.35;3.08;;;;;;;24.27;27.36;102099.41;5047121;28;20036;-68
2021/07/20 08:43:39;;;;;;;9.05;4.35;;;;;;;23.64;28.97;102101.66;5049940;28;20063;-66
2021/07/20 08:46:20;;;;;;;8.60;4.22;;;;;;;22.29;30.09;102097.28;5048295;28;20028;-66
2021/07/20 08:49:05;;;;;;;4.85;3.80;;;;;;;24.13;27.57;102093.34;5046225;28;20127;-68
2021/07/20 08:51:54;;;;;;;5.50;4.03;;;;;;;26.53;24.81;102093.81;5046062;28;20052;-66
2021/07/20 08:54:51;;;;;;;3.92;3.35;;;;;;;24.49;26.33;102102.09;5025917;28;20029;-66
2021/07/20 08:57:26;;;;;;;4.90;2.53;;;;;;;23.78;27.62;102098.75;5046765;28;20040;-68
2021/07/20 09:00:12;;;;;;;6.57;3.65;;;;;;;23.30;28.52;102097.06;5046306;28;20036;-67
2021/07/20 09:02:59;;;;;;;5.22;3.10;;;;;;;23.08;29.60;102099.59;5048512;28;20040;-67
2021/07/20 09:05:32;;;;;;;8.70;4.07;;;;;;;22.62;31.05;102102.94;5048592;28;20028;-68
2021/07/20 09:08:03;;;;;;;6.95;3.72;;;;;;;22.59;30.31;102102.19;5047848;28;20056;-67
2021/07/20 09:10:40;;;;;;;7.95;3.45;;;;;;;22.83;30.26;102098.75;5047338;28;20487;-68
2021/07/20 09:13:11;;;;;;;11.43;4.15;;;;;;;22.76;30.17;102109.00;5045577;28;20036;-69
2021/07/20 09:15:42;;;;;;;8.43;4.07;;;;;;;23.13;29.36;102097.44;5048977;28;20461;-65
2021/07/20 09:18:09;;;;;;;;;;;;;;;22.67;30.57;102106.09;5045485;28;20032;-66
2021/07/20 09:20:36;;;;;;;4.63;2.97;;;;;;;22.12;30.28;102109.09;5046384;28;19913;-65
2021/07/20 09:23:28;;;;;;;5.05;2.63;;;;;;;21.14;32.32;102110.38;5048127;28;20493;-66
2021/07/20 09:26:03;;;;;;;7.53;3.60;;;;;;;20.64;33.68;102119.78;5049410;28;20503;-68
2021/07/20 09:28:40;;;;;;;7.10;3.90;;;;;;;20.33;34.00;102122.56;5042789;28;20076;-65
2021/07/20 09:31:38;;;;;;;5.57;3.20;;;;;;;20.72;33.75;102125.47;5046404;28;20059;-68
2021/07/20 09:34:19;;;;;;;8.32;3.13;;;;;;;20.65;32.82;102117.03;5042857;28;20053;-67
2021/07/20 09:36:50;;;;;;;;;;;;;;;21.05;32.79;102122.47;5044333;28;20500;-67
2021/07/20 09:39:43;;;;;;;8.35;3.38;;;;;;;21.21;31.77;102130.28;5046533;28;19913;-67
2021/07/20 09:42:42;;;;;;;5.75;2.58;;;;;;;21.30;32.48;102127.00;5047262;28;20596;-66
2021/07/20 09:45:12;;;;;;;4.38;2.85;;;;;;;20.31;33.35;102128.91;5047223;28;20127;-66
2021/07/20 09:47:49;;;;;;;6.13;3.20;;;;;;;20.11;33.80;102122.16;5047214;28;20260;-68
2021/07/20 09:50:15;;;;;;;8.75;3.53;;;;;;;20.20;34.34;102124.22;5049663;28;20085;-66
2021/07/20 09:53:20;;;;;;;6.88;2.90;;;;;;;19.66;35.58;102122.16;5047460;28;20060;-67
2021/07/20 09:55:54;;;;;;;4.20;3.15;;;;;;;20.14;35.22;102127.25;4988830;28;20482;-66
2021/07/20 09:58:42;;;;;;;8.00;3.20;;;;;;;19.99;34.35;102115.75;5034706;28;20051;-66
2021/07/20 10:01:22;;;;;;;5.68;2.78;;;;;;;20.86;34.62;102128.09;5044772;28;20040;-68
2021/07/20 10:04:15;;;;;;;8.55;3.20;;;;;;;21.04;33.59;102122.56;5033100;28;20039;-66
2021/07/20 10:06:52;;;;;;;8.73;3.67;;;;;;;21.09;33.13;102128.44;5042228;28;20033;-68
2021/07/20 10:09:52;;;;;;;6.20;3.33;;;;;;;21.16;33.33;102129.75;5030926;28;20033;-67
2021/07/20 10:12:44;;;;;;;4.65;2.78;;;;;;;21.28;32.76;102134.25;5045398;28;20115;-67
2021/07/20 10:15:15;;;;;;;5.10;2.95;;;;;;;20.99;33.75;102124.66;5044967;28;20568;-66
2021/07/20 10:18:02;;;;;;;4.37;2.20;;;;;;;20.79;34.01;102129.41;5044103;28;20060;-67
2021/07/20 10:20:33;;;;;;;7.95;2.90;;;;;;;20.83;33.41;102127.44;5044121;28;20350;-66
2021/07/20 10:23:05;;;;;;;5.30;2.97;;;;;;;20.79;34.47;102131.22;5048807;28;20063;-69
2021/07/20 10:25:58;;;;;;;6.38;3.25;;;;;;;20.28;34.90;102132.63;5043752;28;20041;-67
2021/07/20 10:28:29;;;;;;;4.35;3.10;;;;;;;20.32;35.16;102127.97;5046192;28;20040;-67
2021/07/20 10:31:15;;;;;;;5.80;2.70;;;;;;;20.37;34.74;102131.16;5047849;28;20041;-69
2021/07/20 10:33:45;;;;;;;3.80;2.47;;;;;;;19.97;35.58;102130.94;5045892;28;20293;-65
2021/07/20 10:36:26;;;;;;;5.93;3.10;;;;;;;19.78;35.68;102131.19;5043561;28;20171;-66
2021/07/20 10:39:02;;;;;;;6.07;2.63;;;;;;;19.51;37.30;102125.69;5045829;28;20734;-65
2021/07/20 10:41:51;;;;;;;5.22;2.72;;;;;;;19.25;39.40;102127.19;5041214;28;20394;-68
2021/07/20 10:44:24;;;;;;;8.70;4.65;;;;;;;19.54;39.09;102125.50;5043646;28;20709;-69
2021/07/20 10:46:53;;;;;;;6.15;3.15;;;;;;;19.79;39.49;102124.06;5045147;28;20500;-66
2021/07/20 10:49:32;;;;;;;5.43;3.42;;;;;;;20.12;38.72;102126.50;5034628;28;20486;-66
2021/07/20 10:52:10;;;;;;;7.07;2.70;;;;;;;20.46;38.29;102127.09;5045852;28;20075;-69
2021/07/20 10:54:46;;;;;;;3.78;2.45;;;;;;;20.49;37.44;102116.28;5044610;28;20033;-67
2021/07/20 10:57:20;;;;;;;5.55;2.78;;;;;;;20.81;36.47;102119.56;5031580;28;20040;-67
2021/07/20 11:00:04;;;;;;;6.55;2.53;;;;;;;22.36;33.91;102111.84;5043208;28;20529;-67
2021/07/20 11:02:49;;;;;;;3.83;2.85;;;;;;;21.95;34.36;102109.38;5042854;28;20493;-67
2021/07/20 11:05:17;;;;;;;6.68;3.08;;;;;;;22.22;34.55;102113.78;5043416;28;20040;-68
2021/07/20 11:07:47;;;;;;;4.65;3.00;;;;;;;22.18;35.24;102106.00;5044272;28;20029;-67
2021/07/20 11:10:22;;;;;;;5.55;2.70;;;;;;;22.00;34.91;102109.06;5044469;28;20028;-67
2021/07/20 11:12:54;;;;;;;5.53;3.17;;;;;;;22.29;34.27;102115.03;5047857;28;20037;-68
2021/07/20 11:15:21;;;;;;;8.82;2.90;;;;;;;21.72;35.41;102119.81;5045960;28;20108;-67
2021/07/20 11:17:49;;;;;;;6.03;3.03;;;;;;;22.13;35.63;102104.63;5045897;28;20194;-66
2021/07/20 11:20:18;;;;;;;4.93;2.72;;;;;;;22.52;33.59;102103.59;5016359;28;20076;-66
2021/07/20 11:22:44;;;;;;;4.45;3.25;;;;;;;22.40;34.13;102109.78;5046320;28;20064;-67
2021/07/20 11:25:11;;;;;;;4.47;2.30;;;;;;;22.41;34.07;102114.19;5047297;28;20056;-69
2021/07/20 11:27:39;;;;;;;6.28;3.63;;;;;;;21.91;34.31;102113.22;5042704;28;20040;-66
2021/07/20 11:30:13;;;;;;;3.58;2.17;;;;;;;21.28;35.83;102118.28;5042823;28;20037;-66
2021/07/20 11:32:40;;;;;;;5.10;2.20;;;;;;;21.23;37.10;102123.06;5045924;28;20037;-67
2021/07/20 11:35:16;;;;;;;5.15;2.83;;;;;;;21.19;36.38;102128.69;5045892;28;21124;-67
2021/07/20 11:38:00;;;;;;;3.75;2.38;;;;;;;22.06;35.82;102122.78;5045563;28;20067;-67
2021/07/20 11:40:33;;;;;;;3.15;2.08;;;;;;;22.03;36.40;102131.00;5043320;28;20041;-67
2021/07/20 11:43:14;;;;;;;6.95;2.25;;;;;;;21.24;35.78;102129.22;5045858;28;20389;-69
2021/07/20 11:45:52;;;;;;;5.10;2.35;;;;;;;21.14;37.41;102129.00;5048495;28;20033;-67
2021/07/20 11:48:19;;;;;;;6.50;2.95;;;;;;;20.80;37.12;102125.84;5044690;28;20574;-67
2021/07/20 11:51:32;;;;;;;5.72;2.75;;;;;;;20.94;37.47;102132.94;5045406;28;20481;-67
2021/07/20 11:54:01;;;;;;;5.88;2.22;;;;;;;19.92;38.35;102133.00;5009843;28;20044;-68
2021/07/20 11:56:31;;;;;;;5.35;2.53;;;;;;;18.98;39.91;102140.19;5042421;28;20473;-67